• Join FlightAware (Why Join?)
  • Login
  • US Flag 
04:10PM EDT


 

Airport Tracker/Info


-or-


 

Live Flight TrackerFlight Track Log ✈ WAV261 ✈ 05-Jun-2013 ✈ PFYU - PAFA / FAI

Flight Track Log - Related Links

Times and Time Zones

All times are in EDT time to prevent confusion due to time zone crossing. See the WAV261 flight status page for this flight to view local times or setup timezone preferences in your user account.

Time Position Orientation Groundspeed Altitude Reporting Facility
EDT Latitude Longitude Course Direction KTS MPH feet Rate Location/Type
10:52PM 66.3151 -145.6198 219° Southwest  Level FlightAware Approximate
10:52PM 66.2667 -145.8667 212° Southwest 120 138 12,000  Level Anchorage Center
10:53PM 66.2807 -145.6804 212° Southwest  Level FlightAware Approximate
10:53PM 66.2333 -145.9167 211° Southwest 150 173 12,600  Level Anchorage Center
10:54PM 66.2450 -145.7364 212° Southwest  Level FlightAware Approximate
10:54PM 66.1833 -145.9833 208° Southwest 180 207 12,700  Level Anchorage Center
10:55PM 66.2094 -145.7923 212° Southwest  Level FlightAware Approximate
10:55PM 66.1500 -146.0333 211° Southwest 160 184 12,700  Level Anchorage Center
10:56PM 66.1736 -145.8479 212° Southwest  Level FlightAware Approximate
10:56PM 66.1000 -146.0833 202° Southwest 170 196 12,700  Level Anchorage Center
10:57PM 66.1379 -145.9035 212° Southwest  Level FlightAware Approximate
10:57PM 66.0667 -146.1500 219° Southwest 180 207 12,600  Level Anchorage Center
10:58PM 66.1022 -145.9589 212° Southwest  Level FlightAware Approximate
10:58PM 66.0167 -146.2000 202° Southwest 170 196 12,600  Level Anchorage Center
10:59PM 65.9667 -146.2333 195° South 180 207 12,700  Climbing Anchorage Center
11:00PM 65.9333 -146.3000 219° Southwest 170 196 12,700  Level Anchorage Center
11:01PM 65.8833 -146.3500 202° Southwest 180 207 12,700 -60 Level Anchorage Center
11:02PM 65.8500 -146.4000 212° Southwest 180 207 12,600 -60 Descending Anchorage Center
11:03PM 65.8000 -146.4500 202° Southwest 180 207 12,600  Level Anchorage Center
11:04PM 65.7667 -146.5167 219° Southwest 160 184 12,600 60 Level Anchorage Center
11:05PM 65.7167 -146.5667 202° Southwest 160 184 12,800 -60 Climbing Anchorage Center
11:06PM 65.6833 -146.6333 219° Southwest 180 207 12,500 -420 Descending Anchorage Center
11:07PM 65.6333 -146.6833 202° Southwest 180 207 12,000 -540 Descending Anchorage Center
11:08PM 65.5833 -146.7500 209° Southwest 170 196 11,500 -540 Descending Anchorage Center
11:09PM 65.5500 -146.8000 212° Southwest 170 196 11,000 -540 Descending Anchorage Center
11:10PM 65.5000 -146.8500 203° Southwest 170 196 10,500 -540 Descending Anchorage Center
11:12PM 65.4526 -146.9088 207° Southwest  Level FlightAware Approximate
11:19PM 65.1827 -147.2251 211° Southwest  Level FlightAware Approximate
11:20PM 65.1457 -147.2787 211° Southwest  Level FlightAware Approximate
11:21PM 65.1088 -147.3321 211° Southwest  Level FlightAware Approximate
11:22PM 65.0718 -147.3854 211° Southwest  Level FlightAware Approximate
11:23PM 65.0336 -147.4331 203° Southwest  Level FlightAware Approximate
11:24PM 64.9993 -147.4956 218° Southwest  Level FlightAware Approximate
11:25PM 64.9651 -147.5581 218° Southwest  Level FlightAware Approximate
11:26PM 64.9308 -147.6205 218° Southwest  Level FlightAware Approximate
11:27PM 64.8965 -147.6827 218° Southwest  Level FlightAware Approximate
11:28PM 64.8622 -147.7447 218° Southwest  Level FlightAware Approximate
11:29PM 64.8272 -147.8047 215° Southwest  Level FlightAware Approximate
11:30PM 64.8151 -147.8564 215° Southwest  Level Estimated
11:31PM 64.8151 -147.8564 215° Southwest  Level Estimated
11:32PM 64.8151 -147.8564 215° Southwest  Level Estimated
11:33PM 64.8151 -147.8564 215° Southwest  Level Estimated
11:34PM 64.8151 -147.8564 215° Southwest  Level Estimated
11:35PM 64.8151 -147.8564 215° Southwest  Level Estimated
11:36PM 64.8151 -147.8564 215° Southwest  Level Estimated
11:37PM 64.8151 -147.8564 215° Southwest  Level Estimated
11:38PM 64.8151 -147.8564 215° Southwest  Level Estimated
11:39PM 64.8151 -147.8564 215° Southwest  Level Estimated
11:40PM 64.8151 -147.8564 215° Southwest  Level Estimated
11:41PM 64.8151 -147.8564 215° Southwest  Level Estimated
11:42PM 64.8151 -147.8564 215° Southwest  Level Estimated
11:43PM 64.8151 -147.8564 215° Southwest  Level Estimated
11:44PM 64.8151 -147.8564 215° Southwest  Level Estimated
11:45PM 64.8151 -147.8564 215° Southwest  Level Estimated